createdAt,value
2023-05-21T00:02:06.339Z,10.23
2023-05-21T00:04:54.936Z,9.95
2023-05-21T00:07:46.034Z,10.95
2023-05-21T00:10:34.721Z,9.80
2023-05-21T00:13:23.392Z,10.07
2023-05-21T00:16:13.478Z,10.27
2023-05-21T00:19:02.304Z,9.68
2023-05-21T00:21:51.032Z,9.80
2023-05-21T00:24:39.675Z,9.07
2023-05-21T00:27:28.306Z,9.77
2023-05-21T00:30:17.294Z,9.23
2023-05-21T00:33:07.611Z,10.38
2023-05-21T00:35:56.809Z,11.20
2023-05-21T00:38:46.186Z,10.55
2023-05-21T00:41:35.400Z,10.20
2023-05-21T00:44:25.383Z,10.60
2023-05-21T00:47:18.243Z,10.30
2023-05-21T00:50:10.235Z,10.95
2023-05-21T00:52:59.736Z,10.38
2023-05-21T00:55:49.049Z,9.43
2023-05-21T00:58:38.662Z,11.32
2023-05-21T01:01:27.695Z,10.82
2023-05-21T01:04:16.600Z,10.50
2023-05-21T01:07:09.720Z,10.68
2023-05-21T01:09:58.461Z,10.85
2023-05-21T01:12:49.150Z,10.73
2023-05-21T01:15:39.013Z,10.40
2023-05-21T01:18:28.312Z,9.80
2023-05-21T01:21:17.592Z,10.38
2023-05-21T01:24:08.244Z,10.95
2023-05-21T01:26:58.664Z,11.52
2023-05-21T01:29:47.334Z,11.60
2023-05-21T01:32:44.152Z,11.60
2023-05-21T01:35:38.226Z,10.50
2023-05-21T01:38:32.696Z,10.48
2023-05-21T01:41:23.541Z,11.05
2023-05-21T01:44:13.535Z,10.77
2023-05-21T01:47:03.542Z,10.55
2023-05-21T01:49:53.465Z,11.77
2023-05-21T01:52:50.964Z,10.93
2023-05-21T01:55:42.091Z,10.48
2023-05-21T01:58:32.341Z,10.73
2023-05-21T02:01:21.006Z,10.80
2023-05-21T02:04:09.812Z,10.82
2023-05-21T02:06:58.787Z,10.02
2023-05-21T02:09:47.476Z,10.20
2023-05-21T02:12:36.156Z,10.55
2023-05-21T02:15:26.733Z,10.90
2023-05-21T02:18:16.825Z,9.88
2023-05-21T02:21:05.931Z,10.20
2023-05-21T02:23:54.589Z,11.40
2023-05-21T02:26:43.417Z,11.02
2023-05-21T02:29:32.347Z,10.75
2023-05-21T02:32:23.727Z,10.48
2023-05-21T02:35:13.959Z,10.85
2023-05-21T02:38:04.931Z,10.45
2023-05-21T02:40:53.821Z,10.50
2023-05-21T02:43:42.556Z,10.65
2023-05-21T02:46:31.341Z,10.80
2023-05-21T02:49:21.644Z,10.30
2023-05-21T02:52:10.335Z,9.63
2023-05-21T02:54:58.969Z,10.55
2023-05-21T02:57:47.598Z,10.40
2023-05-21T03:00:36.273Z,10.85
2023-05-21T03:03:25.238Z,10.10
2023-05-21T03:06:16.390Z,10.82
2023-05-21T03:09:05.938Z,9.40
2023-05-21T03:11:54.636Z,10.73
2023-05-21T03:14:44.159Z,10.75
2023-05-21T03:17:32.805Z,11.05
2023-05-21T03:20:21.474Z,10.40
2023-05-21T03:23:15.698Z,11.20
2023-05-21T03:26:05.371Z,10.02
2023-05-21T03:28:53.996Z,10.30
2023-05-21T03:31:42.696Z,10.05
2023-05-21T03:34:31.422Z,10.82
2023-05-21T03:37:20.053Z,10.80
2023-05-21T03:40:11.564Z,10.38
2023-05-21T03:43:00.222Z,10.05
2023-05-21T03:45:48.924Z,10.05
2023-05-21T03:48:40.215Z,10.88
2023-05-21T03:51:30.295Z,10.98
2023-05-21T03:54:18.951Z,10.20
2023-05-21T03:57:09.174Z,10.73
2023-05-21T03:59:59.010Z,11.30
2023-05-21T04:02:48.093Z,10.20
2023-05-21T04:05:36.975Z,10.35
2023-05-21T04:08:28.362Z,9.98
2023-05-21T04:11:16.995Z,10.55
2023-05-21T04:14:07.036Z,11.23
2023-05-21T04:16:56.742Z,10.07
2023-05-21T04:19:45.387Z,10.85
2023-05-21T04:22:35.353Z,10.82
2023-05-21T04:25:25.327Z,11.02
2023-05-21T04:28:14.009Z,10.43
2023-05-21T04:31:05.785Z,10.18
2023-05-21T04:33:55.470Z,10.98
2023-05-21T04:36:44.083Z,9.85
2023-05-21T04:39:32.771Z,10.10
2023-05-21T04:42:24.009Z,10.30
2023-05-21T04:45:13.329Z,10.90
2023-05-21T04:48:03.726Z,11.43
2023-05-21T04:50:53.525Z,11.52
2023-05-21T04:53:42.654Z,9.95
2023-05-21T04:56:33.049Z,10.95
2023-05-21T04:59:21.793Z,10.77
2023-05-21T05:02:10.560Z,9.93
2023-05-21T05:05:00.614Z,10.23
2023-05-21T05:07:49.313Z,9.95
2023-05-21T05:10:37.947Z,10.82
2023-05-21T05:13:27.242Z,11.50
2023-05-21T05:16:18.424Z,9.77
2023-05-21T05:19:07.182Z,9.77
2023-05-21T05:21:57.276Z,10.30
2023-05-21T05:24:45.992Z,9.75
2023-05-21T05:27:36.407Z,10.57
2023-05-21T05:30:27.759Z,10.38
2023-05-21T05:33:16.617Z,10.07
2023-05-21T05:36:05.654Z,10.95
2023-05-21T05:38:55.775Z,10.57
2023-05-21T05:41:44.389Z,10.45
2023-05-21T05:44:33.125Z,10.93
2023-05-21T05:47:21.777Z,10.85
2023-05-21T05:50:10.968Z,9.45
2023-05-21T05:52:59.626Z,10.00
2023-05-21T05:55:49.670Z,10.50
2023-05-21T05:58:38.494Z,10.50
2023-05-21T06:01:28.047Z,10.05
2023-05-21T06:04:16.694Z,10.23
2023-05-21T06:07:05.611Z,9.20
2023-05-21T06:09:55.676Z,9.75
2023-05-21T06:12:45.825Z,11.30
2023-05-21T06:15:35.692Z,10.45
2023-05-21T06:18:26.829Z,11.00
2023-05-21T06:21:15.492Z,10.10
2023-05-21T06:24:05.243Z,9.75
2023-05-21T06:26:53.891Z,10.93
2023-05-21T06:29:43.975Z,9.70
2023-05-21T06:32:32.848Z,10.48
2023-05-21T06:35:21.910Z,9.40
2023-05-21T06:38:10.581Z,10.30
2023-05-21T06:40:59.469Z,17.88
2023-05-21T06:43:48.101Z,16.85
2023-05-21T06:46:38.186Z,17.65
2023-05-21T06:49:26.809Z,14.32
2023-05-21T06:52:15.452Z,15.25
2023-05-21T06:55:06.338Z,13.93
2023-05-21T06:57:55.030Z,13.30
2023-05-21T07:00:43.717Z,12.35
2023-05-21T07:03:33.883Z,11.40
2023-05-21T07:06:22.519Z,12.07
2023-05-21T07:09:11.202Z,11.45
2023-05-21T07:12:00.034Z,11.45
2023-05-21T07:14:49.029Z,11.35
2023-05-21T07:17:37.926Z,10.73
2023-05-21T07:20:27.931Z,11.27
2023-05-21T07:23:16.654Z,10.77
2023-05-21T07:26:05.686Z,10.63
2023-05-21T07:28:54.445Z,10.93
2023-05-21T07:31:43.233Z,10.90
2023-05-21T07:34:33.035Z,10.27
2023-05-21T07:37:23.300Z,10.75
2023-05-21T07:40:13.069Z,9.85
2023-05-21T07:43:04.679Z,9.65
2023-05-21T07:45:53.545Z,9.25
2023-05-21T07:48:44.155Z,9.48
2023-05-21T07:51:33.092Z,12.35
2023-05-21T07:54:23.153Z,13.52
2023-05-21T07:57:11.820Z,12.27
2023-05-21T08:00:00.526Z,12.30
2023-05-21T08:02:50.522Z,12.70
2023-05-21T08:05:39.378Z,11.23
2023-05-21T08:08:28.130Z,11.60
2023-05-21T08:11:18.244Z,10.73
2023-05-21T08:14:11.608Z,10.43
2023-05-21T08:17:00.272Z,10.32
2023-05-21T08:19:48.986Z,10.73
2023-05-21T08:22:37.697Z,10.68
2023-05-21T08:25:29.341Z,10.00
2023-05-21T08:28:19.425Z,10.68
2023-05-21T08:31:10.206Z,10.05
2023-05-21T08:33:58.873Z,9.00
2023-05-21T08:36:49.952Z,9.95
2023-05-21T08:39:38.636Z,9.63
2023-05-21T08:42:37.519Z,10.45
2023-05-21T08:45:29.064Z,9.23
2023-05-21T08:48:18.487Z,9.23
2023-05-21T08:51:09.481Z,9.20
2023-05-21T08:53:59.303Z,8.85
2023-05-21T08:56:49.573Z,8.73
2023-05-21T08:59:43.253Z,9.02
2023-05-21T09:02:38.938Z,8.80
2023-05-21T09:05:28.658Z,9.05
2023-05-21T09:08:21.849Z,9.93
2023-05-21T09:11:10.710Z,8.75
2023-05-21T09:14:00.598Z,10.25
2023-05-21T09:16:49.345Z,9.63
2023-05-21T09:19:39.972Z,9.35
2023-05-21T09:22:29.483Z,8.85
2023-05-21T09:25:22.355Z,9.10
2023-05-21T09:28:14.449Z,8.82
2023-05-21T09:31:05.303Z,9.15
2023-05-21T09:33:55.639Z,8.82
2023-05-21T09:36:47.231Z,8.55
2023-05-21T09:39:36.070Z,8.60
2023-05-21T09:42:24.760Z,9.00
2023-05-21T09:45:14.970Z,8.38
2023-05-21T09:48:03.872Z,8.70
2023-05-21T09:50:52.952Z,8.02
2023-05-21T09:53:50.045Z,8.35
2023-05-21T09:56:38.738Z,9.07
2023-05-21T09:59:37.855Z,8.93
2023-05-21T10:02:27.723Z,9.02
2023-05-21T10:05:17.572Z,8.77
2023-05-21T10:08:06.738Z,8.73
2023-05-21T10:10:58.341Z,8.68
2023-05-21T10:13:50.640Z,9.52
2023-05-21T10:16:39.329Z,8.00
2023-05-21T10:19:32.060Z,8.27
2023-05-21T10:22:21.156Z,8.50
2023-05-21T10:25:10.503Z,8.38
2023-05-21T10:28:00.638Z,8.98
2023-05-21T10:30:49.752Z,9.02
2023-05-21T10:33:40.040Z,8.50
2023-05-21T10:36:32.732Z,8.25
2023-05-21T10:39:24.029Z,8.00
2023-05-21T10:42:28.290Z,7.43
2023-05-21T10:45:28.721Z,7.82
2023-05-21T10:48:40.558Z,7.95
2023-05-21T10:51:30.736Z,8.13
2023-05-21T10:54:54.387Z,8.07
2023-05-21T10:58:18.182Z,8.45
2023-05-21T11:01:09.383Z,8.52
2023-05-21T11:03:58.107Z,7.68
2023-05-21T11:06:49.608Z,8.05
2023-05-21T11:09:39.771Z,7.75
2023-05-21T11:12:29.874Z,7.28
2023-05-21T11:15:18.485Z,8.15
2023-05-21T11:18:09.479Z,7.40
2023-05-21T11:21:06.009Z,6.88
2023-05-21T11:23:55.341Z,7.05
2023-05-21T11:27:06.715Z,6.68
2023-05-21T11:29:57.452Z,6.15
2023-05-21T11:33:15.911Z,6.40
2023-05-21T11:36:14.373Z,4.82
2023-05-21T11:39:17.912Z,5.25
2023-05-21T11:42:06.943Z,5.53
2023-05-21T11:44:57.999Z,5.32
2023-05-21T11:47:46.874Z,5.72
2023-05-21T11:50:37.620Z,5.97
2023-05-21T11:53:27.936Z,6.10
2023-05-21T11:56:18.395Z,5.55
2023-05-21T11:59:07.101Z,6.18
2023-05-21T12:01:56.961Z,5.03
2023-05-21T12:04:48.582Z,6.30
2023-05-21T12:07:38.524Z,5.38
2023-05-21T12:10:28.751Z,6.80
2023-05-21T12:13:17.371Z,5.43
2023-05-21T12:16:07.368Z,5.97
2023-05-21T12:18:56.502Z,5.53
2023-05-21T12:21:45.661Z,6.50
2023-05-21T12:24:35.534Z,6.35
2023-05-21T12:27:28.243Z,6.40
2023-05-21T12:30:20.149Z,6.15
2023-05-21T12:33:08.819Z,6.35
2023-05-21T12:35:57.676Z,6.38
2023-05-21T12:38:47.684Z,6.32
2023-05-21T12:41:36.420Z,6.47
2023-05-21T12:44:31.717Z,6.43
2023-05-21T12:47:21.026Z,6.32
2023-05-21T12:50:12.351Z,6.07
2023-05-21T12:53:00.966Z,6.82
2023-05-21T12:55:49.766Z,6.65
2023-05-21T12:58:40.262Z,6.22
2023-05-21T13:01:30.361Z,6.55
2023-05-21T13:04:21.602Z,6.63
2023-05-21T13:07:10.341Z,7.13
2023-05-21T13:10:00.053Z,6.68
2023-05-21T13:12:48.665Z,7.30
2023-05-21T13:15:37.520Z,6.70
2023-05-21T13:18:27.876Z,7.10
2023-05-21T13:21:16.747Z,6.97
2023-05-21T13:24:05.746Z,7.75
2023-05-21T13:26:54.407Z,7.55
2023-05-21T13:29:43.156Z,7.15
2023-05-21T13:32:32.078Z,6.78
2023-05-21T13:35:22.313Z,6.93
2023-05-21T13:38:10.975Z,7.55
2023-05-21T13:40:59.660Z,7.35
2023-05-21T13:43:48.408Z,7.55
2023-05-21T13:46:39.463Z,7.65
2023-05-21T13:49:28.310Z,7.60
2023-05-21T13:52:18.449Z,7.32
2023-05-21T13:55:08.152Z,7.32
2023-05-21T13:57:56.885Z,7.88
2023-05-21T14:00:45.729Z,8.52
2023-05-21T14:03:34.994Z,7.70
2023-05-21T14:06:23.685Z,7.65
2023-05-21T14:09:14.052Z,7.15
2023-05-21T14:12:06.243Z,6.10
2023-05-21T14:14:55.533Z,6.57
2023-05-21T14:17:44.260Z,6.18
2023-05-21T14:20:33.100Z,5.70
2023-05-21T14:23:21.939Z,5.82
2023-05-21T14:26:12.107Z,5.32
2023-05-21T14:29:01.442Z,5.25
2023-05-21T14:31:50.267Z,5.43
2023-05-21T14:34:40.605Z,5.82
2023-05-21T14:37:29.257Z,6.40
2023-05-21T14:40:18.366Z,5.32
2023-05-21T14:43:08.521Z,5.75
2023-05-21T14:45:57.465Z,6.03
2023-05-21T14:48:46.685Z,5.72
2023-05-21T14:51:35.413Z,5.05
2023-05-21T14:54:24.043Z,5.55
2023-05-21T14:57:12.727Z,5.20
2023-05-21T15:00:02.996Z,5.65
2023-05-21T15:02:52.253Z,6.10
2023-05-21T15:05:42.202Z,5.70
2023-05-21T15:08:31.002Z,5.38
2023-05-21T15:11:19.690Z,5.15
2023-05-21T15:14:08.414Z,5.65
2023-05-21T15:16:58.442Z,5.70
2023-05-21T15:19:48.764Z,5.10
2023-05-21T15:22:37.810Z,5.18
2023-05-21T15:25:26.531Z,5.25
2023-05-21T15:28:15.422Z,5.68
2023-05-21T15:31:04.479Z,5.22
2023-05-21T15:33:54.681Z,5.53
2023-05-21T15:36:43.358Z,5.22
2023-05-21T15:39:32.084Z,5.40
2023-05-21T15:42:20.915Z,5.35
2023-05-21T15:45:12.039Z,5.55
2023-05-21T15:48:00.756Z,5.68
2023-05-21T15:50:51.241Z,5.13
2023-05-21T15:53:40.113Z,5.43
2023-05-21T15:56:29.192Z,4.50
2023-05-21T15:59:20.699Z,5.47
2023-05-21T16:02:10.127Z,5.40
2023-05-21T16:04:58.887Z,5.82
2023-05-21T16:07:49.203Z,4.38
2023-05-21T16:10:39.985Z,4.63
2023-05-21T16:13:28.802Z,4.70
2023-05-21T16:16:17.613Z,4.82
2023-05-21T16:19:06.842Z,6.05
2023-05-21T16:21:55.497Z,32.80
2023-05-21T16:24:45.680Z,165.35
2023-05-21T16:27:35.549Z,146.25
2023-05-21T16:30:24.224Z,134.98
2023-05-21T16:33:13.040Z,100.72
2023-05-21T16:36:01.722Z,36.35
2023-05-21T16:38:50.521Z,15.10
2023-05-21T16:41:40.577Z,12.65
2023-05-21T16:44:29.350Z,9.25
2023-05-21T16:47:18.291Z,7.07
2023-05-21T16:50:08.581Z,5.85
2023-05-21T16:52:59.205Z,5.53
2023-05-21T16:55:47.929Z,5.20
2023-05-21T16:58:38.100Z,5.80
2023-05-21T17:01:27.038Z,5.35
2023-05-21T17:04:15.689Z,5.03
2023-05-21T17:07:04.509Z,4.95
2023-05-21T17:09:53.438Z,4.28
2023-05-21T17:12:42.102Z,5.15
2023-05-21T17:15:32.323Z,5.10
2023-05-21T17:18:21.175Z,4.63
2023-05-21T17:21:11.095Z,4.05
2023-05-21T17:23:59.765Z,4.93
2023-05-21T17:26:48.438Z,4.38
2023-05-21T17:29:37.117Z,4.53
2023-05-21T17:32:27.198Z,5.00
2023-05-21T17:35:15.994Z,4.50
2023-05-21T17:38:04.747Z,4.97
2023-05-21T17:40:54.423Z,5.07
2023-05-21T17:43:43.090Z,4.45
2023-05-21T17:46:33.876Z,4.43
2023-05-21T17:49:23.914Z,4.57
2023-05-21T17:52:12.817Z,5.28
2023-05-21T17:55:02.421Z,4.95
2023-05-21T17:57:51.045Z,4.57
2023-05-21T18:00:39.850Z,4.78
2023-05-21T18:03:28.574Z,4.50
2023-05-21T18:06:18.822Z,4.97
2023-05-21T18:09:08.242Z,4.80
2023-05-21T18:11:58.365Z,4.40
2023-05-21T18:14:48.077Z,5.03
2023-05-21T18:17:36.814Z,5.03
2023-05-21T18:20:25.950Z,4.22
2023-05-21T18:23:16.228Z,4.70
2023-05-21T18:26:05.835Z,4.57
2023-05-21T18:28:54.588Z,5.40
2023-05-21T18:31:45.599Z,4.63
2023-05-21T18:34:34.334Z,4.90
2023-05-21T18:37:22.938Z,4.70
2023-05-21T18:40:14.770Z,4.68
2023-05-21T18:43:05.986Z,4.60
2023-05-21T18:45:54.682Z,4.68
2023-05-21T18:48:43.366Z,4.05
2023-05-21T18:51:32.541Z,4.95
2023-05-21T18:54:21.228Z,4.93
2023-05-21T18:57:11.996Z,5.55
2023-05-21T19:00:00.959Z,4.97
2023-05-21T19:02:49.756Z,4.10
2023-05-21T19:05:38.553Z,4.90
2023-05-21T19:08:27.207Z,4.13
2023-05-21T19:11:17.521Z,5.00
2023-05-21T19:14:07.799Z,4.20
2023-05-21T19:16:56.458Z,4.70
2023-05-21T19:19:45.141Z,4.50
2023-05-21T19:22:34.036Z,5.22
2023-05-21T19:28:41.560Z,4.25
2023-05-21T19:31:31.584Z,4.20
2023-05-21T19:34:20.807Z,4.80
2023-05-21T19:37:09.612Z,4.15
2023-05-21T19:39:58.458Z,4.35
2023-05-21T19:42:47.514Z,4.05
2023-05-21T19:45:36.301Z,4.63
2023-05-21T19:48:26.463Z,4.53
2023-05-21T19:51:15.791Z,4.90
2023-05-21T19:54:04.449Z,4.88
2023-05-21T19:56:53.239Z,4.18
2023-05-21T19:59:41.940Z,3.80
2023-05-21T20:02:30.734Z,4.75
2023-05-21T20:05:21.082Z,4.65
2023-05-21T20:08:09.687Z,5.55
2023-05-21T20:10:58.294Z,4.43
2023-05-21T20:13:50.080Z,4.25
2023-05-21T20:16:38.868Z,4.25
2023-05-21T20:19:28.089Z,4.35
2023-05-21T20:22:18.385Z,4.32
2023-05-21T20:25:08.783Z,4.10
2023-05-21T20:27:58.072Z,4.10
2023-05-21T20:30:57.316Z,4.32
2023-05-21T20:33:46.374Z,3.78
2023-05-21T20:36:35.321Z,4.15
2023-05-21T20:39:27.257Z,3.78
2023-05-21T20:42:16.180Z,3.85
2023-05-21T20:45:05.136Z,3.88
2023-05-21T20:47:53.917Z,3.72
2023-05-21T20:50:44.134Z,3.67
2023-05-21T20:53:33.775Z,4.45
2023-05-21T20:56:40.043Z,4.30
2023-05-21T20:59:30.702Z,3.72
2023-05-21T21:02:20.167Z,4.03
2023-05-21T21:05:10.578Z,4.15
2023-05-21T21:08:02.618Z,4.07
2023-05-21T21:10:51.554Z,4.13
2023-05-21T21:13:41.808Z,3.70
2023-05-21T21:16:30.665Z,4.00
2023-05-21T21:19:19.804Z,4.57
2023-05-21T21:22:08.473Z,3.55
2023-05-21T21:24:57.108Z,4.25
2023-05-21T21:27:45.805Z,4.28
2023-05-21T21:30:35.828Z,3.70
2023-05-21T21:33:26.663Z,3.50
2023-05-21T21:36:15.470Z,4.35
2023-05-21T21:39:04.319Z,4.05
2023-05-21T21:41:53.069Z,4.55
2023-05-21T21:44:42.239Z,4.20
2023-05-21T21:47:33.631Z,3.90
2023-05-21T21:50:22.334Z,4.20
2023-05-21T21:53:12.615Z,4.03
2023-05-21T21:56:01.404Z,4.28
2023-05-21T21:58:50.048Z,4.75
2023-05-21T22:01:39.437Z,3.78
2023-05-21T22:04:29.745Z,3.97
2023-05-21T22:07:18.655Z,4.28
2023-05-21T22:10:08.190Z,5.05
2023-05-21T22:12:57.038Z,4.47
2023-05-21T22:15:45.828Z,4.55
2023-05-21T22:18:40.401Z,4.85
2023-05-21T22:21:33.927Z,5.05
2023-05-21T22:24:31.956Z,4.97
2023-05-21T22:27:22.085Z,5.35
2023-05-21T22:30:11.556Z,4.47
2023-05-21T22:33:00.551Z,4.65
2023-05-21T22:35:49.174Z,4.88
2023-05-21T22:38:39.281Z,3.53
2023-05-21T22:41:28.024Z,4.43
2023-05-21T22:44:16.729Z,4.25
2023-05-21T22:47:06.482Z,4.25
2023-05-21T22:49:58.180Z,3.67
2023-05-21T22:52:47.348Z,4.25
2023-05-21T22:55:37.397Z,4.53
2023-05-21T22:58:26.024Z,4.30
2023-05-21T23:01:14.888Z,4.70
2023-05-21T23:04:03.725Z,4.47
2023-05-21T23:06:52.807Z,4.30
2023-05-21T23:09:41.677Z,4.25
2023-05-21T23:12:31.730Z,4.68
2023-05-21T23:15:21.694Z,3.97
2023-05-21T23:18:11.404Z,4.05
2023-05-21T23:21:00.270Z,3.70
2023-05-21T23:23:49.009Z,3.95
2023-05-21T23:26:37.674Z,4.53
2023-05-21T23:29:27.679Z,4.22
2023-05-21T23:32:16.361Z,3.97
2023-05-21T23:35:05.304Z,4.10
2023-05-21T23:37:54.005Z,4.88
2023-05-21T23:40:43.696Z,4.80
2023-05-21T23:43:32.474Z,4.05
2023-05-21T23:46:22.919Z,4.25
2023-05-21T23:49:11.983Z,4.47
2023-05-21T23:52:01.506Z,4.25
2023-05-21T23:54:50.111Z,4.15
2023-05-21T23:57:39.197Z,4.75
